Time;durP1;ratioP1;P1;durP2;ratioP2;P2;SDS_P1;SDS_P2;PMS_P1;PMS_P2;Temp;Humidity;BMP_temperature;BMP_pressure;BME280_temperature;BME280_humidity;BME280_pressure;Samples;Min_cycle;Max_cycle;Signal;HPM_P1;HPM_P2
2022/04/08 00:01:45;;;;;;;9.37;1.77;;;7.40;99.90;;;;;;5003528;28;20295;-83
2022/04/08 00:04:13;;;;;;;13.73;1.60;;;7.40;99.90;;;;;;5002782;28;20221;-85
2022/04/08 00:06:40;;;;;;;7.63;1.60;;;7.50;99.90;;;;;;5002268;28;20277;-83
2022/04/08 00:09:07;;;;;;;13.07;1.93;;;7.40;99.90;;;;;;5007422;28;20636;-83
2022/04/08 00:11:34;;;;;;;8.67;1.60;;;7.30;99.90;;;;;;5024094;28;20230;-85
2022/04/08 00:14:01;;;;;;;9.40;1.83;;;7.40;99.90;;;;;;5003691;28;20216;-84
2022/04/08 00:16:29;;;;;;;7.73;1.43;;;7.30;99.90;;;;;;5005021;28;20279;-84
2022/04/08 00:18:56;;;;;;;9.53;1.73;;;7.30;99.90;;;;;;5021655;28;20590;-83
2022/04/08 00:21:25;;;;;;;6.73;1.30;;;7.30;99.90;;;;;;5021805;28;20206;-83
2022/04/08 00:23:53;;;;;;;7.53;1.40;;;7.30;99.90;;;;;;5006539;28;20220;-84
2022/04/08 00:26:20;;;;;;;8.67;1.50;;;7.30;99.90;;;;;;5014666;28;20205;-85
2022/04/08 00:28:47;;;;;;;17.47;3.27;;;7.30;99.90;;;;;;5006076;28;20287;-84
2022/04/08 00:31:14;;;;;;;6.73;1.60;;;7.30;99.90;;;;;;5018859;28;20277;-83
2022/04/08 00:33:40;;;;;;;14.90;1.70;;;7.30;99.90;;;;;;5001209;28;20204;-83
2022/04/08 00:36:07;;;;;;;8.57;1.80;;;7.30;99.90;;;;;;5024043;28;20238;-84
2022/04/08 00:38:34;;;;;;;7.17;1.10;;;7.50;99.90;;;;;;5004833;28;20212;-83
2022/04/08 00:41:01;;;;;;;5.73;1.63;;;7.30;99.90;;;;;;5016236;28;20208;-84
2022/04/08 00:43:36;;;;;;;7.57;1.30;;;7.30;99.90;;;;;;5003872;28;20379;-85
2022/04/08 00:46:07;;;;;;;4.00;1.10;;;7.20;99.90;;;;;;4999577;28;20301;-83
2022/04/08 00:48:36;;;;;;;6.30;1.10;;;7.20;99.90;;;;;;5001349;28;20200;-82
2022/04/08 00:51:06;;;;;;;4.50;1.10;;;7.20;99.90;;;;;;5019628;28;22531;-83
2022/04/08 00:53:36;;;;;;;4.17;1.40;;;7.30;99.90;;;;;;5005043;28;20220;-82
2022/04/08 00:56:04;;;;;;;9.07;1.33;;;7.30;99.90;;;;;;5005892;28;20301;-84
2022/04/08 00:58:34;;;;;;;5.27;1.33;;;7.30;99.90;;;;;;5020158;28;20270;-83
2022/04/08 01:01:01;;;;;;;6.80;1.30;;;7.20;99.90;;;;;;4998665;28;20199;-84
2022/04/08 01:03:28;;;;;;;6.20;1.20;;;7.20;99.90;;;;;;5003369;28;20235;-83
2022/04/08 01:05:57;;;;;;;8.47;1.57;;;7.20;99.90;;;;;;5006860;28;21879;-83
2022/04/08 01:08:25;;;;;;;8.80;1.60;;;7.30;99.90;;;;;;5020550;28;20606;-85
2022/04/08 01:10:54;;;;;;;4.77;1.40;;;7.20;99.90;;;;;;5003811;28;20198;-84
2022/04/08 01:13:23;;;;;;;6.20;1.33;;;7.20;99.90;;;;;;5021669;28;20208;-86
2022/04/08 01:15:50;;;;;;;5.17;1.10;;;7.20;99.90;;;;;;5002800;28;21149;-83
2022/04/08 01:18:17;;;;;;;4.97;1.30;;;7.10;99.90;;;;;;5008734;28;20626;-86
2022/04/08 01:20:44;;;;;;;8.67;1.47;;;7.00;99.90;;;;;;5003829;28;20204;-85
2022/04/08 01:23:15;;;;;;;9.37;1.03;;;6.90;99.90;;;;;;5022681;28;20220;-85
2022/04/08 01:25:42;;;;;;;10.57;1.93;;;6.90;99.90;;;;;;4989245;28;20218;-83
2022/04/08 01:28:10;;;;;;;11.13;1.57;;;6.80;99.90;;;;;;5003554;28;20208;-84
2022/04/08 01:30:37;;;;;;;8.47;1.40;;;6.80;99.90;;;;;;5001867;28;20197;-85
2022/04/08 01:33:05;;;;;;;6.37;1.60;;;6.90;99.90;;;;;;5004006;28;20303;-84
2022/04/08 01:35:32;;;;;;;4.90;1.20;;;6.90;99.90;;;;;;5006043;28;20211;-83
2022/04/08 01:37:59;;;;;;;7.03;1.60;;;6.70;99.90;;;;;;5007620;28;20767;-83
2022/04/08 01:40:27;;;;;;;12.07;2.20;;;6.80;99.90;;;;;;5002952;28;20240;-83
2022/04/08 01:42:54;;;;;;;10.40;2.03;;;6.80;99.90;;;;;;5003111;28;20326;-86
2022/04/08 01:45:21;;;;;;;9.20;1.80;;;6.80;99.90;;;;;;5006670;28;20614;-83
2022/04/08 01:47:48;;;;;;;3.90;1.23;;;6.80;99.90;;;;;;5006265;28;20214;-84
2022/04/08 01:50:18;;;;;;;8.30;2.00;;;6.70;99.90;;;;;;5005701;28;20633;-86
2022/04/08 01:52:46;;;;;;;8.33;1.67;;;6.70;99.90;;;;;;5026336;28;20657;-84
2022/04/08 01:55:12;;;;;;;8.10;1.50;;;6.90;99.90;;;;;;5007266;28;20212;-83
2022/04/08 01:57:41;;;;;;;6.43;1.53;;;6.80;99.90;;;;;;5011402;28;20228;-83
2022/04/08 02:00:09;;;;;;;9.83;1.47;;;6.70;99.90;;;;;;5008390;28;20193;-85
2022/04/08 02:02:36;;;;;;;4.10;0.77;;;6.60;99.90;;;;;;5024801;28;20658;-83
2022/04/08 02:05:03;;;;;;;10.13;2.30;;;6.50;99.90;;;;;;5009498;28;20229;-84
2022/04/08 02:07:30;;;;;;;6.23;1.30;;;6.50;99.90;;;;;;5026639;28;20262;-84
2022/04/08 02:09:57;;;;;;;8.37;1.30;;;6.50;99.90;;;;;;5009045;28;20312;-84
2022/04/08 02:12:23;;;;;;;6.87;1.20;;;6.50;99.90;;;;;;5006408;28;20346;-85
2022/04/08 02:14:50;;;;;;;4.13;1.10;;;6.50;99.90;;;;;;5007156;28;20209;-85
2022/04/08 02:17:18;;;;;;;6.90;1.03;;;6.50;99.90;;;;;;5007371;28;20229;-84
2022/04/08 02:19:46;;;;;;;2.77;1.10;;;6.30;99.90;;;;;;5024464;28;20297;-83
2022/04/08 02:22:13;;;;;;;6.33;1.07;;;6.20;99.90;;;;;;5012797;28;20211;-85
2022/04/08 02:24:40;;;;;;;5.50;1.20;;;6.00;99.90;;;;;;5007253;28;20324;-85
2022/04/08 02:27:07;;;;;;;3.13;0.73;;;6.00;99.90;;;;;;5007430;28;20670;-84
2022/04/08 02:29:34;;;;;;;3.80;0.90;;;6.00;99.90;;;;;;5007491;28;20195;-83
2022/04/08 02:32:01;;;;;;;4.33;1.13;;;5.90;99.90;;;;;;5007293;28;20243;-82
2022/04/08 02:34:28;;;;;;;2.53;0.60;;;6.00;99.90;;;;;;5006341;28;20201;-83
2022/04/08 02:36:55;;;;;;;5.17;1.17;;;5.90;99.90;;;;;;5005657;28;20201;-83
2022/04/08 02:39:22;;;;;;;2.83;0.90;;;5.80;99.90;;;;;;5008212;28;20200;-84
2022/04/08 02:41:49;;;;;;;6.33;0.90;;;5.50;99.90;;;;;;5007351;28;20207;-83
2022/04/08 02:44:18;;;;;;;7.27;1.20;;;5.50;99.90;;;;;;5024040;28;20298;-84
2022/04/08 02:46:44;;;;;;;2.40;0.60;;;5.50;99.90;;;;;;5025411;28;20298;-82
2022/04/08 02:49:11;;;;;;;3.90;1.10;;;5.30;99.90;;;;;;5023187;28;20204;-82
2022/04/08 02:51:38;;;;;;;3.53;0.67;;;5.20;99.90;;;;;;5023729;28;20298;-82
2022/04/08 02:54:07;;;;;;;5.83;0.90;;;5.00;99.90;;;;;;5007502;28;20205;-84
2022/04/08 02:56:35;;;;;;;7.20;0.90;;;5.00;99.90;;;;;;5021971;28;20305;-83
2022/04/08 02:59:03;;;;;;;3.73;0.83;;;4.90;99.90;;;;;;5004921;28;20212;-82
2022/04/08 03:01:29;;;;;;;4.97;1.27;;;4.90;99.90;;;;;;5007292;28;20276;-85
2022/04/08 03:03:56;;;;;;;4.53;0.83;;;4.90;99.90;;;;;;5007531;28;20209;-84
2022/04/08 03:06:23;;;;;;;4.57;1.27;;;4.90;99.90;;;;;;5006698;28;20268;-83
2022/04/08 03:08:50;;;;;;;5.57;0.83;;;4.80;99.90;;;;;;5004570;28;20340;-84
2022/04/08 03:11:17;;;;;;;5.60;1.00;;;4.90;99.90;;;;;;5021093;28;20202;-85
2022/04/08 03:13:45;;;;;;;5.10;0.83;;;4.80;99.90;;;;;;5007692;28;20547;-85
2022/04/08 03:16:12;;;;;;;4.63;1.03;;;4.80;99.90;;;;;;5007146;28;20200;-84
2022/04/08 03:18:39;;;;;;;2.77;1.07;;;4.80;99.90;;;;;;5004712;28;20300;-85
2022/04/08 03:21:06;;;;;;;8.60;1.47;;;4.90;99.90;;;;;;5005636;28;20261;-85
2022/04/08 03:23:33;;;;;;;5.80;1.43;;;5.10;99.90;;;;;;5008069;28;20246;-85
2022/04/08 03:26:00;;;;;;;7.83;1.80;;;5.20;99.90;;;;;;5006502;28;20315;-85
2022/04/08 03:28:27;;;;;;;11.13;1.80;;;5.30;99.90;;;;;;5011220;28;20209;-86
2022/04/08 03:30:53;;;;;;;6.40;1.20;;;5.20;99.90;;;;;;5005832;28;20212;-86
2022/04/08 03:33:20;;;;;;;5.63;1.00;;;5.20;99.90;;;;;;5007276;28;20567;-85
2022/04/08 03:35:47;;;;;;;9.23;2.17;;;5.10;99.90;;;;;;5005510;28;20797;-84
2022/04/08 03:38:14;;;;;;;7.07;1.90;;;5.00;99.90;;;;;;5001028;28;20304;-87
2022/04/08 03:40:41;;;;;;;6.77;1.60;;;4.90;99.90;;;;;;5009152;28;20235;-85
2022/04/08 03:43:08;;;;;;;6.93;1.73;;;5.00;99.90;;;;;;5005715;28;20282;-84
2022/04/08 03:45:35;;;;;;;4.90;0.90;;;5.00;99.90;;;;;;5004745;28;20219;-86
2022/04/08 03:48:02;;;;;;;7.80;1.60;;;5.00;99.90;;;;;;5007895;28;20577;-85
2022/04/08 03:50:30;;;;;;;9.37;1.60;;;5.00;99.90;;;;;;5012311;28;20208;-84
2022/04/08 03:52:57;;;;;;;10.07;1.90;;;5.10;99.90;;;;;;5008014;28;20533;-87
2022/04/08 03:55:23;;;;;;;6.47;1.47;;;5.10;99.90;;;;;;5008164;28;20243;-85
2022/04/08 03:57:50;;;;;;;9.73;1.73;;;5.10;99.90;;;;;;5009898;28;20587;-86
2022/04/08 04:00:18;;;;;;;8.50;1.70;;;5.10;99.90;;;;;;5015390;28;20205;-85
2022/04/08 04:02:45;;;;;;;8.80;1.40;;;5.20;99.90;;;;;;5006424;28;20656;-86
2022/04/08 04:05:12;;;;;;;4.90;1.40;;;5.00;99.90;;;;;;5014924;28;20212;-85
2022/04/08 04:07:40;;;;;;;9.60;1.50;;;5.10;99.90;;;;;;5012279;28;20244;-85
2022/04/08 04:10:07;;;;;;;7.80;1.20;;;4.90;99.90;;;;;;5008794;28;20227;-86
2022/04/08 04:12:34;;;;;;;4.97;1.07;;;4.80;99.90;;;;;;5010413;28;20254;-87
2022/04/08 04:15:03;;;;;;;4.93;1.10;;;4.80;99.90;;;;;;5011777;28;20283;-86
2022/04/08 04:17:31;;;;;;;6.33;1.97;;;4.70;99.90;;;;;;5012775;28;20547;-85
2022/04/08 04:19:57;;;;;;;5.07;1.13;;;4.70;99.90;;;;;;5015239;28;20246;-86
2022/04/08 04:22:24;;;;;;;10.73;1.43;;;4.70;99.90;;;;;;5015799;28;20740;-86
2022/04/08 04:24:51;;;;;;;4.57;1.20;;;4.60;99.90;;;;;;5013277;28;20278;-85
2022/04/08 04:27:19;;;;;;;10.90;1.83;;;4.60;99.90;;;;;;5012634;28;20640;-85
2022/04/08 04:29:46;;;;;;;7.50;1.30;;;4.60;99.90;;;;;;5008955;28;20212;-86
2022/04/08 04:32:13;;;;;;;6.63;1.67;;;4.60;99.90;;;;;;5023839;28;20299;-86
2022/04/08 04:34:40;;;;;;;6.43;1.77;;;4.70;99.90;;;;;;5007036;28;20197;-86
2022/04/08 04:37:10;;;;;;;8.07;1.27;;;4.70;99.90;;;;;;5008811;28;20608;-85
2022/04/08 04:39:37;;;;;;;10.97;1.70;;;4.60;99.90;;;;;;5002870;28;20235;-86
2022/04/08 04:42:07;;;;;;;11.30;1.90;;;4.60;99.90;;;;;;5006090;28;20525;-85
2022/04/08 04:44:34;;;;;;;5.63;1.40;;;4.60;99.90;;;;;;5008571;28;20290;-85
2022/04/08 04:47:02;;;;;;;7.50;1.63;;;4.60;99.90;;;;;;5003989;28;20220;-85
2022/04/08 04:49:29;;;;;;;3.50;1.37;;;4.60;99.90;;;;;;5022263;28;20205;-85
2022/04/08 04:51:55;;;;;;;7.80;1.37;;;4.50;99.90;;;;;;5003719;28;20216;-85
2022/04/08 04:54:22;;;;;;;6.30;1.77;;;4.40;99.90;;;;;;5026068;28;20253;-86
2022/04/08 04:56:49;;;;;;;6.33;1.73;;;4.40;99.90;;;;;;5007193;28;20278;-86
2022/04/08 04:59:16;;;;;;;4.37;1.50;;;4.40;99.90;;;;;;5007223;28;20208;-85
2022/04/08 05:01:42;;;;;;;6.67;1.43;;;4.50;99.90;;;;;;5011835;28;20282;-85
2022/04/08 05:04:09;;;;;;;5.77;1.53;;;4.50;99.90;;;;;;5004598;28;20201;-85
2022/04/08 05:06:37;;;;;;;4.30;1.40;;;4.60;99.90;;;;;;5008895;28;20703;-84
2022/04/08 05:09:05;;;;;;;5.90;1.80;;;4.60;99.90;;;;;;5014918;28;20214;-86
2022/04/08 05:11:33;;;;;;;6.00;1.43;;;4.70;99.90;;;;;;4998217;28;20205;-86
2022/04/08 05:14:00;;;;;;;4.97;2.07;;;4.80;99.90;;;;;;5001403;28;20644;-85
2022/04/08 05:16:28;;;;;;;11.80;1.97;;;4.60;99.90;;;;;;5003246;28;20593;-86
2022/04/08 05:18:56;;;;;;;4.47;1.83;;;4.60;99.90;;;;;;5017297;28;20610;-85
2022/04/08 05:21:23;;;;;;;5.80;1.47;;;4.70;99.90;;;;;;5022782;28;20756;-85
2022/04/08 05:23:51;;;;;;;6.43;1.70;;;4.90;99.90;;;;;;5010287;28;20816;-85
2022/04/08 05:26:18;;;;;;;7.17;1.73;;;4.90;99.90;;;;;;5006762;28;20244;-86
2022/04/08 05:28:45;;;;;;;8.13;2.00;;;4.90;99.90;;;;;;5009001;28;20227;-86
2022/04/08 05:31:13;;;;;;;10.87;2.17;;;4.80;99.90;;;;;;5007668;28;20214;-84
2022/04/08 05:33:40;;;;;;;6.07;1.70;;;4.70;99.90;;;;;;5007547;28;20194;-85
2022/04/08 05:36:07;;;;;;;6.77;1.90;;;4.70;99.90;;;;;;5005383;28;20244;-87
2022/04/08 05:38:34;;;;;;;5.53;1.50;;;4.80;99.90;;;;;;5006136;28;20209;-84
2022/04/08 05:41:02;;;;;;;4.73;2.00;;;4.80;99.90;;;;;;5015418;28;20245;-85
2022/04/08 05:43:31;;;;;;;6.03;2.13;;;4.90;99.90;;;;;;5011190;28;20205;-84
2022/04/08 05:45:58;;;;;;;5.23;1.73;;;5.00;99.90;;;;;;5007758;28;20221;-84
2022/04/08 05:48:27;;;;;;;7.17;2.10;;;4.90;99.90;;;;;;5007698;28;20221;-90
2022/04/08 05:50:59;;;;;;;7.97;2.23;;;5.00;99.90;;;;;;5006406;28;20241;-83
2022/04/08 05:53:31;;;;;;;9.30;2.07;;;5.10;99.90;;;;;;5007629;28;20220;-88
2022/04/08 05:56:03;;;;;;;9.57;3.87;;;5.10;99.90;;;;;;5004953;28;20231;-89
2022/04/08 05:58:31;;;;;;;4.27;1.80;;;5.30;99.90;;;;;;5009834;28;20201;-87
2022/04/08 06:00:58;;;;;;;5.60;2.13;;;5.30;99.90;;;;;;5008734;28;20201;-84
2022/04/08 06:03:25;;;;;;;4.63;2.13;;;5.40;99.90;;;;;;5007605;28;20565;-85
2022/04/08 06:05:54;;;;;;;6.07;1.53;;;5.40;99.90;;;;;;5006205;28;20263;-85
2022/04/08 06:08:22;;;;;;;4.87;2.03;;;5.50;99.90;;;;;;5019963;28;20267;-85
2022/04/08 06:10:49;;;;;;;6.00;1.93;;;5.60;99.90;;;;;;5003767;28;20240;-80
2022/04/08 06:13:17;;;;;;;3.90;1.87;;;5.70;99.90;;;;;;5002948;28;20288;-83
2022/04/08 06:15:44;;;;;;;4.53;2.03;;;5.60;99.90;;;;;;5006589;28;20313;-81
2022/04/08 06:18:13;;;;;;;5.20;2.00;;;5.50;99.90;;;;;;5003300;28;20234;-83
2022/04/08 06:20:40;;;;;;;5.50;1.93;;;5.60;99.90;;;;;;5010700;28;20208;-81
2022/04/08 06:23:07;;;;;;;6.37;1.90;;;5.80;99.90;;;;;;5005985;28;20206;-80
2022/04/08 06:25:35;;;;;;;6.53;1.97;;;5.70;99.90;;;;;;5010304;28;20229;-82
2022/04/08 06:28:05;;;;;;;5.40;1.83;;;5.80;99.90;;;;;;5005799;28;20256;-80
2022/04/08 06:30:36;;;;;;;4.57;2.17;;;5.70;99.90;;;;;;5003513;28;20275;-82
2022/04/08 06:33:04;;;;;;;4.07;2.13;;;5.80;99.90;;;;;;5005163;28;20197;-82
2022/04/08 06:35:32;;;;;;;9.30;2.33;;;5.90;99.90;;;;;;5003110;28;20218;-82
2022/04/08 06:38:02;;;;;;;6.30;2.03;;;6.10;99.90;;;;;;5008739;28;20236;-81
2022/04/08 06:40:32;;;;;;;2.57;2.10;;;6.10;99.90;;;;;;5006491;28;20651;-81
2022/04/08 06:43:00;;;;;;;5.87;2.27;;;6.20;99.90;;;;;;4995815;28;20206;-83
2022/04/08 06:45:28;;;;;;;4.30;2.20;;;6.30;99.90;;;;;;4992075;28;20221;-81
2022/04/08 06:47:55;;;;;;;6.70;2.17;;;6.40;99.90;;;;;;5008482;28;20213;-82
2022/04/08 06:50:25;;;;;;;5.50;2.70;;;6.30;99.90;;;;;;4994164;28;20955;-83
2022/04/08 06:52:59;;;;;;;4.40;2.67;;;6.20;99.90;;;;;;4992229;28;20297;-83
2022/04/08 06:55:26;;;;;;;4.63;2.40;;;6.30;99.90;;;;;;4997464;28;20886;-82
2022/04/08 06:57:54;;;;;;;6.43;2.50;;;6.20;99.90;;;;;;4991799;28;20582;-82
2022/04/08 07:00:21;;;;;;;9.70;2.80;;;6.30;99.90;;;;;;4988049;28;21183;-83
2022/04/08 07:02:48;;;;;;;3.90;3.03;;;6.30;99.90;;;;;;4991664;28;20838;-81
2022/04/08 07:05:16;;;;;;;6.33;3.70;;;6.20;99.90;;;;;;4989560;28;20204;-84
2022/04/08 07:07:45;;;;;;;6.43;3.10;;;6.30;99.90;;;;;;5025498;28;20248;-81
2022/04/08 07:10:13;;;;;;;6.67;3.43;;;6.30;99.90;;;;;;5023068;28;20214;-83
2022/04/08 07:12:40;;;;;;;8.60;3.43;;;6.30;99.90;;;;;;5027043;28;20271;-81
2022/04/08 07:15:08;;;;;;;5.77;3.47;;;6.30;99.90;;;;;;5043885;28;20200;-82
2022/04/08 07:17:36;;;;;;;8.97;4.23;;;6.50;99.90;;;;;;5028941;28;20210;-82
2022/04/08 07:20:14;;;;;;;7.23;3.57;;;6.40;99.90;;;;;;5028174;28;20309;-82
2022/04/08 07:22:42;;;;;;;5.80;3.50;;;6.50;99.90;;;;;;5024984;28;20212;-82
2022/04/08 07:25:10;;;;;;;8.97;3.40;;;6.50;99.90;;;;;;5020296;28;20309;-82
2022/04/08 07:27:51;;;;;;;5.13;3.80;;;6.40;99.90;;;;;;5032219;28;20417;-83
2022/04/08 07:30:21;;;;;;;8.57;4.60;;;6.40;99.90;;;;;;5020884;28;20225;-80
2022/04/08 07:32:52;;;;;;;7.03;4.10;;;6.40;99.90;;;;;;5032389;28;20320;-83
2022/04/08 07:35:19;;;;;;;5.93;3.93;;;6.70;99.90;;;;;;5028967;28;20292;-82
2022/04/08 07:37:48;;;;;;;6.17;3.97;;;6.80;99.90;;;;;;5032571;28;20199;-84
2022/04/08 07:40:15;;;;;;;8.70;3.40;;;6.80;99.90;;;;;;5029397;28;20213;-81
2022/04/08 07:42:42;;;;;;;5.67;3.27;;;6.80;99.90;;;;;;5038883;28;20214;-81
2022/04/08 07:45:10;;;;;;;7.97;3.93;;;6.80;99.90;;;;;;5034296;28;20651;-81
2022/04/08 07:47:38;;;;;;;9.63;3.57;;;6.80;99.90;;;;;;5051334;28;20220;-82
2022/04/08 07:50:10;;;;;;;7.20;3.30;;;6.90;99.90;;;;;;5027233;28;22977;-80
2022/04/08 07:52:39;;;;;;;6.23;3.23;;;6.90;99.90;;;;;;5029604;28;20278;-83
2022/04/08 07:55:07;;;;;;;7.13;3.20;;;7.00;99.90;;;;;;5029882;28;20675;-81
2022/04/08 07:57:42;;;;;;;6.83;3.00;;;7.00;99.90;;;;;;5028940;28;20429;-80
2022/04/08 08:00:10;;;;;;;7.93;3.37;;;7.00;99.90;;;;;;5028839;28;20219;-82
2022/04/08 08:02:37;;;;;;;6.03;3.00;;;6.90;99.90;;;;;;5046260;28;20216;-81
2022/04/08 08:05:06;;;;;;;4.63;2.70;;;6.90;99.90;;;;;;5030464;28;20215;-83
2022/04/08 08:07:43;;;;;;;6.27;2.50;;;7.00;99.90;;;;;;5047131;28;20239;-80
2022/04/08 08:10:14;;;;;;;5.37;2.90;;;7.00;99.90;;;;;;5047387;28;20288;-81
2022/04/08 08:12:41;;;;;;;5.63;2.93;;;7.10;99.90;;;;;;5045769;28;20748;-83
2022/04/08 08:15:09;;;;;;;7.30;2.60;;;7.10;99.90;;;;;;5026502;28;20304;-83
2022/04/08 08:17:38;;;;;;;7.03;2.70;;;7.10;99.90;;;;;;5029697;28;20624;-81
2022/04/08 08:20:06;;;;;;;3.43;2.20;;;7.20;99.90;;;;;;5045714;28;20237;-81
2022/04/08 08:22:34;;;;;;;5.73;2.40;;;7.20;1.00;;;;;;5025897;28;20277;-82
2022/04/08 08:25:02;;;;;;;3.83;2.37;;;7.30;1.00;;;;;;5049208;28;20652;-81
2022/04/08 08:27:36;;;;;;;5.47;2.77;;;7.10;81.80;;;;;;5030943;28;20602;-82
2022/04/08 08:30:10;;;;;;;8.03;2.70;;;7.20;1.00;;;;;;5046450;28;20212;-80
2022/04/08 08:32:38;;;;;;;5.00;2.60;;;7.20;1.00;;;;;;5048253;28;21774;-83
2022/04/08 08:35:09;;;;;;;4.63;2.50;;;7.30;1.00;;;;;;5030890;28;20500;-81
2022/04/08 08:37:36;;;;;;;5.57;2.60;;;7.30;1.00;;;;;;5029618;28;20342;-80
2022/04/08 08:40:05;;;;;;;4.73;2.43;;;7.50;99.90;;;;;;5033088;28;20257;-81
2022/04/08 08:42:34;;;;;;;5.60;2.77;;;7.50;1.00;;;;;;5047542;28;20270;-80
2022/04/08 08:45:03;;;;;;;6.70;2.90;;;7.50;1.00;;;;;;5030298;28;20839;-81
2022/04/08 08:47:32;;;;;;;4.63;3.10;;;7.40;1.00;;;;;;5031109;28;20230;-81
2022/04/08 08:50:00;;;;;;;4.67;2.53;;;7.60;99.90;;;;;;5048246;28;20214;-80
2022/04/08 08:52:28;;;;;;;3.30;2.17;;;7.70;99.90;;;;;;5047751;28;20576;-81
2022/04/08 08:54:55;;;;;;;6.83;2.67;;;7.80;99.90;;;;;;5033308;28;20529;-80
2022/04/08 08:57:23;;;;;;;5.27;2.90;;;7.80;99.90;;;;;;5048645;28;20239;-81
2022/04/08 09:00:06;;;;;;;5.27;2.80;;;7.80;99.90;;;;;;5029780;28;20304;-82
2022/04/08 09:02:34;;;;;;;6.60;2.83;;;7.80;1.00;;;;;;5032001;28;20217;-82
2022/04/08 09:05:17;;;;;;;3.87;2.50;;;7.90;99.90;;;;;;5030729;28;20597;-82
2022/04/08 09:08:05;;;;;;;10.70;3.43;;;8.00;99.90;;;;;;5046231;28;20711;-82
2022/04/08 09:10:34;;;;;;;4.13;2.83;;;8.00;99.90;;;;;;5031880;28;20273;-81
2022/04/08 09:13:02;;;;;;;4.13;2.37;;;8.30;99.90;;;;;;5044745;28;20497;-80
2022/04/08 09:15:29;;;;;;;10.30;2.90;;;8.30;1.00;;;;;;5032320;28;20244;-81
2022/04/08 09:18:07;;;;;;;5.43;2.67;;;8.40;85.20;;;;;;5028774;28;20232;-80
2022/04/08 09:20:38;;;;;;;5.63;2.27;;;8.50;1.00;;;;;;5047587;28;20320;-80
2022/04/08 09:23:08;;;;;;;4.67;2.70;;;8.50;99.90;;;;;;5030744;28;20214;-80
2022/04/08 09:25:35;;;;;;;8.77;2.80;;;8.50;99.90;;;;;;5048785;28;20750;-80
2022/04/08 09:28:07;;;;;;;8.80;2.67;;;8.40;99.90;;;;;;5046531;28;20611;-83
2022/04/08 09:30:35;;;;;;;5.97;2.63;;;8.30;99.90;;;;;;5045169;28;21554;-82
2022/04/08 09:33:18;;;;;;;6.43;2.80;;;8.60;99.90;;;;;;5029169;28;20203;-81
2022/04/08 09:35:49;;;;;;;7.03;2.97;;;8.60;99.90;;;;;;5050242;28;20220;-80
2022/04/08 09:38:26;;;;;;;6.73;2.90;;;8.40;99.90;;;;;;5051522;28;20255;-81
2022/04/08 09:41:08;;;;;;;5.73;2.20;;;8.40;99.90;;;;;;5028497;28;20199;-81
2022/04/08 09:43:38;;;;;;;10.70;3.07;;;8.40;99.90;;;;;;5029766;28;20692;-82
2022/04/08 09:46:19;;;;;;;4.97;2.17;;;8.10;99.90;;;;;;5030935;28;20689;-81
2022/04/08 09:48:48;;;;;;;7.83;2.33;;;8.00;99.90;;;;;;5038318;28;20558;-82
2022/04/08 09:51:23;;;;;;;6.10;2.33;;;8.20;99.90;;;;;;5031023;28;20561;-80
2022/04/08 09:53:55;;;;;;;4.40;2.50;;;8.40;99.90;;;;;;5026980;28;20236;-81
2022/04/08 09:56:27;;;;;;;4.13;2.10;;;8.30;99.90;;;;;;5032093;28;20304;-82
2022/04/08 09:59:14;;;;;;;6.63;2.67;;;8.20;99.90;;;;;;5016481;28;20208;-83
2022/04/08 10:02:03;;;;;;;5.50;3.03;;;8.50;99.90;;;;;;5030840;28;20207;-81
2022/04/08 10:04:33;;;;;;;7.33;2.43;;;8.30;99.90;;;;;;5031163;28;20610;-81
2022/04/08 10:07:01;;;;;;;4.97;2.63;;;8.30;99.90;;;;;;5031274;28;20317;-80
2022/04/08 10:09:30;;;;;;;10.47;3.13;;;8.20;99.90;;;;;;5034266;28;20221;-80
2022/04/08 10:12:06;;;;;;;7.70;3.03;;;8.10;99.90;;;;;;5050064;28;20271;-80
2022/04/08 10:14:45;;;;;;;9.03;2.90;;;8.10;99.90;;;;;;5034243;28;20216;-81
2022/04/08 10:17:13;;;;;;;4.47;2.43;;;8.10;99.90;;;;;;5052251;28;20209;-80
2022/04/08 10:19:40;;;;;;;6.77;2.20;;;8.10;99.90;;;;;;5035285;28;20231;-82
2022/04/08 10:22:18;;;;;;;7.37;2.30;;;8.10;99.90;;;;;;5020254;28;20212;-80
2022/04/08 10:24:53;;;;;;;6.47;2.90;;;8.30;99.90;;;;;;5030075;28;20210;-81
2022/04/08 10:27:38;;;;;;;6.80;2.60;;;8.20;99.90;;;;;;5031196;28;20623;-81
2022/04/08 10:30:21;;;;;;;9.70;2.37;;;8.10;99.90;;;;;;5050573;28;20275;-81
2022/04/08 10:32:59;;;;;;;4.83;2.30;;;8.20;99.90;;;;;;5035253;28;20211;-81
2022/04/08 10:35:26;;;;;;;8.50;2.60;;;8.30;99.90;;;;;;5031278;28;20578;-81
2022/04/08 10:38:03;;;;;;;8.03;2.37;;;8.30;99.90;;;;;;5029601;28;20214;-80
2022/04/08 10:40:31;;;;;;;5.47;2.70;;;8.40;99.90;;;;;;5035422;28;20226;-81
2022/04/08 10:43:05;;;;;;;8.80;2.60;;;8.50;99.90;;;;;;5030512;28;20203;-81
2022/04/08 10:45:32;;;;;;;4.83;2.73;;;8.60;99.90;;;;;;5030852;28;20245;-81
2022/04/08 10:48:02;;;;;;;4.67;2.20;;;8.90;99.90;;;;;;5031464;28;20235;-82
2022/04/08 10:50:48;;;;;;;4.63;1.73;;;9.00;99.90;;;;;;5034386;28;20219;-81
2022/04/08 10:53:21;;;;;;;5.53;2.47;;;9.30;99.90;;;;;;5036083;28;20214;-81
2022/04/08 10:55:55;;;;;;;7.10;2.50;;;9.10;99.90;;;;;;5036738;28;20339;-81
2022/04/08 10:58:33;;;;;;;5.20;2.30;;;9.10;99.90;;;;;;5038518;28;20214;-81
2022/04/08 11:01:00;;;;;;;6.70;2.40;;;9.00;99.90;;;;;;5051086;28;20212;-80
2022/04/08 11:03:29;;;;;;;6.40;2.90;;;8.70;99.90;;;;;;5048392;28;20219;-80
2022/04/08 11:05:56;;;;;;;4.67;2.50;;;8.60;99.90;;;;;;5022633;28;20298;-81
2022/04/08 11:08:26;;;;;;;10.10;3.60;;;8.70;99.90;;;;;;4993484;28;20232;-82
2022/04/08 11:10:59;;;;;;;6.40;2.77;;;8.90;99.90;;;;;;4992424;28;20299;-81
2022/04/08 11:13:26;;;;;;;7.53;2.77;;;8.60;99.90;;;;;;4977923;28;20271;-81
2022/04/08 11:15:59;;;;;;;5.00;2.63;;;8.50;99.90;;;;;;4993995;28;20221;-80
2022/04/08 11:18:28;;;;;;;8.10;2.73;;;8.60;99.90;;;;;;4993925;28;20282;-80
2022/04/08 11:20:55;;;;;;;6.83;2.50;;;8.50;99.90;;;;;;4994139;28;20247;-82
2022/04/08 11:23:26;;;;;;;7.50;2.53;;;8.70;99.90;;;;;;4993540;28;20663;-82
2022/04/08 11:25:53;;;;;;;7.17;2.77;;;9.00;99.90;;;;;;4992923;28;20258;-80
2022/04/08 11:28:23;;;;;;;9.93;2.40;;;8.80;99.90;;;;;;4993151;28;20315;-81
2022/04/08 11:30:56;;;;;;;6.03;2.20;;;8.90;99.90;;;;;;4990076;28;20274;-81
2022/04/08 11:33:24;;;;;;;7.50;1.87;;;8.60;99.90;;;;;;4989915;28;20285;-82
2022/04/08 11:36:00;;;;;;;3.90;1.90;;;8.60;99.90;;;;;;4989605;28;20209;-82
2022/04/08 11:38:29;;;;;;;6.70;1.73;;;8.90;99.90;;;;;;4989561;28;20258;-80
2022/04/08 11:41:20;;;;;;;4.63;1.17;;;8.90;99.90;;;;;;4989965;28;20215;-81
2022/04/08 11:43:48;;;;;;;2.80;1.10;;;8.80;99.90;;;;;;4992927;28;20655;-80
2022/04/08 11:46:17;;;;;;;8.63;1.10;;;8.90;99.90;;;;;;5010392;28;20279;-81
2022/04/08 11:48:49;;;;;;;3.53;1.40;;;8.90;99.90;;;;;;4992800;28;20206;-82
2022/04/08 11:51:21;;;;;;;9.00;2.37;;;9.10;99.90;;;;;;4990966;28;20300;-81
2022/04/08 11:53:50;;;;;;;1.93;1.27;;;9.20;99.90;;;;;;4990725;28;20264;-81
2022/04/08 11:56:25;;;;;;;2.53;1.20;;;8.90;99.90;;;;;;5008348;28;20237;-81
2022/04/08 11:58:54;;;;;;;5.77;1.60;;;9.20;99.90;;;;;;4988751;28;20203;-81
2022/04/08 12:01:21;;;;;;;7.53;1.30;;;9.20;99.90;;;;;;4989917;28;20601;-81
2022/04/08 12:03:53;;;;;;;3.07;1.40;;;9.40;99.90;;;;;;5009424;28;20225;-80
2022/04/08 12:06:20;;;;;;;5.80;1.40;;;9.40;99.90;;;;;;5012253;28;20760;-81
2022/04/08 12:08:48;;;;;;;7.73;3.10;;;9.30;99.90;;;;;;5012941;28;20239;-82
2022/04/08 12:11:15;;;;;;;3.60;2.03;;;9.40;1.00;;;;;;4992397;28;20226;-80
2022/04/08 12:13:43;;;;;;;7.83;2.90;;;9.10;99.90;;;;;;5011902;28;20212;-82
2022/04/08 12:16:13;;;;;;;5.33;2.20;;;8.90;99.90;;;;;;5012794;28;20659;-80
2022/04/08 12:18:51;;;;;;;4.33;2.20;;;8.90;99.90;;;;;;5030121;28;20214;-83
2022/04/08 12:21:27;;;;;;;2.07;1.43;;;9.20;99.90;;;;;;5011175;28;20359;-82
2022/04/08 12:24:02;;;;;;;6.97;1.70;;;9.40;99.90;;;;;;5033113;28;20250;-81
2022/04/08 12:26:32;;;;;;;5.30;1.30;;;9.60;99.50;;;;;;5027909;28;20306;-81
2022/04/08 12:29:07;;;;;;;5.83;1.70;;;9.80;99.90;;;;;;5010130;28;20208;-82
2022/04/08 12:32:00;;;;;;;4.97;1.83;;;9.80;99.90;;;;;;5020142;28;20298;-82
2022/04/08 12:34:27;;;;;;;3.70;1.47;;;9.60;1.00;;;;;;5012704;28;20252;-81
2022/04/08 12:36:54;;;;;;;4.10;1.40;;;9.40;99.90;;;;;;5011430;28;20656;-83
2022/04/08 12:39:21;;;;;;;2.10;1.20;;;9.50;99.90;;;;;;5013395;28;20575;-83
2022/04/08 12:41:49;;;;;;;5.30;1.70;;;9.70;1.00;;;;;;5007185;28;20727;-83
2022/04/08 12:44:16;;;;;;;3.80;1.53;;;9.90;99.90;;;;;;5010642;28;20741;-82
2022/04/08 12:46:43;;;;;;;3.37;1.43;;;10.00;99.90;;;;;;5015321;28;20212;-80
2022/04/08 12:49:10;;;;;;;4.07;1.57;;;9.70;99.90;;;;;;5008518;28;20259;-83
2022/04/08 12:51:37;;;;;;;3.90;1.27;;;9.70;99.90;;;;;;5010111;28;20381;-84
2022/04/08 12:54:04;;;;;;;4.67;1.80;;;9.80;99.90;;;;;;4991988;28;20282;-83
2022/04/08 12:56:31;;;;;;;2.80;1.47;;;9.40;99.90;;;;;;5011477;28;20248;-82
2022/04/08 12:59:00;;;;;;;6.97;1.97;;;9.60;99.90;;;;;;4997665;28;20515;-82
2022/04/08 13:01:30;;;;;;;2.20;1.47;;;9.60;99.90;;;;;;5010006;28;20287;-84
2022/04/08 13:03:58;;;;;;;3.80;2.10;;;9.70;99.90;;;;;;5008649;28;20253;-82
2022/04/08 13:06:28;;;;;;;4.03;1.73;;;9.50;99.90;;;;;;5026281;28;20334;-82
2022/04/08 13:08:55;;;;;;;5.23;1.80;;;9.70;99.90;;;;;;5008517;28;20714;-82